sensor_id;sensor_type;location;lat;lon;timestamp;P1;durP1;ratioP1;P2;durP2;ratioP2
49900;SDS011;35789;48.414;12.768;2024-03-08T00:00:00;33.6;;;15.5;;
49900;SDS011;35789;48.414;12.768;2024-03-08T00:05:00;33.6;;;15.5;;
49900;SDS011;35789;48.414;12.768;2024-03-08T00:10:00;33.6;;;15.5;;
49900;SDS011;35789;48.414;12.768;2024-03-08T00:15:00;33.6;;;15.5;;
49900;SDS011;35789;48.414;12.768;2024-03-08T00:20:00;28.2;;;13.2;;
49900;SDS011;35789;48.414;12.768;2024-03-08T00:25:00;28.2;;;13.2;;
49900;SDS011;35789;48.414;12.768;2024-03-08T00:30:01;28.2;;;13.2;;
49900;SDS011;35789;48.414;12.768;2024-03-08T00:35:00;28.2;;;13.2;;
49900;SDS011;35789;48.414;12.768;2024-03-08T00:40:00;28.2;;;13.2;;
49900;SDS011;35789;48.414;12.768;2024-03-08T00:45:00;28.2;;;13.2;;
49900;SDS011;35789;48.414;12.768;2024-03-08T00:50:00;27.4;;;13.0;;
49900;SDS011;35789;48.414;12.768;2024-03-08T00:55:00;27.4;;;13.0;;
49900;SDS011;35789;48.414;12.768;2024-03-08T01:00:02;27.4;;;13.0;;
49900;SDS011;35789;48.414;12.768;2024-03-08T01:05:00;27.4;;;13.0;;
49900;SDS011;35789;48.414;12.768;2024-03-08T01:10:00;27.4;;;13.0;;
49900;SDS011;35789;48.414;12.768;2024-03-08T01:15:00;27.4;;;13.0;;
49900;SDS011;35789;48.414;12.768;2024-03-08T01:20:00;28.6;;;13.5;;
49900;SDS011;35789;48.414;12.768;2024-03-08T01:25:00;28.6;;;13.5;;
49900;SDS011;35789;48.414;12.768;2024-03-08T01:30:00;28.6;;;13.5;;
49900;SDS011;35789;48.414;12.768;2024-03-08T01:35:00;28.6;;;13.5;;
49900;SDS011;35789;48.414;12.768;2024-03-08T01:40:00;28.6;;;13.5;;
49900;SDS011;35789;48.414;12.768;2024-03-08T01:45:00;28.6;;;13.5;;
49900;SDS011;35789;48.414;12.768;2024-03-08T01:50:01;30.0;;;14.3;;
49900;SDS011;35789;48.414;12.768;2024-03-08T01:55:01;30.0;;;14.3;;
49900;SDS011;35789;48.414;12.768;2024-03-08T02:00:00;30.0;;;14.3;;
49900;SDS011;35789;48.414;12.768;2024-03-08T02:05:00;30.0;;;14.3;;
49900;SDS011;35789;48.414;12.768;2024-03-08T02:10:00;30.0;;;14.3;;
49900;SDS011;35789;48.414;12.768;2024-03-08T02:15:00;30.0;;;14.3;;
49900;SDS011;35789;48.414;12.768;2024-03-08T02:20:00;40.8;;;18.2;;
49900;SDS011;35789;48.414;12.768;2024-03-08T02:25:00;40.8;;;18.2;;
49900;SDS011;35789;48.414;12.768;2024-03-08T02:30:00;40.8;;;18.2;;
49900;SDS011;35789;48.414;12.768;2024-03-08T02:35:00;40.8;;;18.2;;
49900;SDS011;35789;48.414;12.768;2024-03-08T02:40:00;40.8;;;18.2;;
49900;SDS011;35789;48.414;12.768;2024-03-08T02:45:00;40.8;;;18.2;;
49900;SDS011;35789;48.414;12.768;2024-03-08T02:50:00;45.9;;;21.8;;
49900;SDS011;35789;48.414;12.768;2024-03-08T02:55:00;45.9;;;21.8;;
49900;SDS011;35789;48.414;12.768;2024-03-08T03:00:00;45.9;;;21.8;;
49900;SDS011;35789;48.414;12.768;2024-03-08T03:05:00;45.9;;;21.8;;
49900;SDS011;35789;48.414;12.768;2024-03-08T03:10:00;45.9;;;21.8;;
49900;SDS011;35789;48.414;12.768;2024-03-08T03:15:00;45.9;;;21.8;;
49900;SDS011;35789;48.414;12.768;2024-03-08T03:20:00;53.2;;;24.0;;
49900;SDS011;35789;48.414;12.768;2024-03-08T03:25:00;53.2;;;24.0;;
49900;SDS011;35789;48.414;12.768;2024-03-08T03:30:00;53.2;;;24.0;;
49900;SDS011;35789;48.414;12.768;2024-03-08T03:35:00;53.2;;;24.0;;
49900;SDS011;35789;48.414;12.768;2024-03-08T03:40:00;53.2;;;24.0;;
49900;SDS011;35789;48.414;12.768;2024-03-08T03:45:00;50.3;;;23.2;;
49900;SDS011;35789;48.414;12.768;2024-03-08T03:50:00;50.3;;;23.2;;
49900;SDS011;35789;48.414;12.768;2024-03-08T03:55:00;50.3;;;23.2;;
49900;SDS011;35789;48.414;12.768;2024-03-08T04:00:00;50.3;;;23.2;;
49900;SDS011;35789;48.414;12.768;2024-03-08T04:05:00;50.3;;;23.2;;
49900;SDS011;35789;48.414;12.768;2024-03-08T04:10:00;50.3;;;23.2;;
49900;SDS011;35789;48.414;12.768;2024-03-08T04:15:00;58.4;;;26.2;;
49900;SDS011;35789;48.414;12.768;2024-03-08T04:20:00;58.4;;;26.2;;
49900;SDS011;35789;48.414;12.768;2024-03-08T04:25:00;58.4;;;26.2;;
49900;SDS011;35789;48.414;12.768;2024-03-08T04:30:00;58.4;;;26.2;;
49900;SDS011;35789;48.414;12.768;2024-03-08T04:35:00;58.4;;;26.2;;
49900;SDS011;35789;48.414;12.768;2024-03-08T04:40:00;58.4;;;26.2;;
49900;SDS011;35789;48.414;12.768;2024-03-08T04:45:00;61.2;;;26.8;;
49900;SDS011;35789;48.414;12.768;2024-03-08T04:50:00;61.2;;;26.8;;
49900;SDS011;35789;48.414;12.768;2024-03-08T04:55:00;61.2;;;26.8;;
49900;SDS011;35789;48.414;12.768;2024-03-08T05:00:00;61.2;;;26.8;;
49900;SDS011;35789;48.414;12.768;2024-03-08T05:05:00;61.2;;;26.8;;
49900;SDS011;35789;48.414;12.768;2024-03-08T05:10:00;61.2;;;26.8;;
49900;SDS011;35789;48.414;12.768;2024-03-08T05:15:00;59.5;;;25.9;;
49900;SDS011;35789;48.414;12.768;2024-03-08T05:20:00;59.5;;;25.9;;
49900;SDS011;35789;48.414;12.768;2024-03-08T05:25:00;59.5;;;25.9;;
49900;SDS011;35789;48.414;12.768;2024-03-08T05:30:00;59.5;;;25.9;;
49900;SDS011;35789;48.414;12.768;2024-03-08T05:35:00;59.5;;;25.9;;
49900;SDS011;35789;48.414;12.768;2024-03-08T05:40:00;59.5;;;25.9;;
49900;SDS011;35789;48.414;12.768;2024-03-08T05:45:00;55.6;;;25.3;;
49900;SDS011;35789;48.414;12.768;2024-03-08T05:50:00;55.6;;;25.3;;
49900;SDS011;35789;48.414;12.768;2024-03-08T05:55:00;55.6;;;25.3;;
49900;SDS011;35789;48.414;12.768;2024-03-08T06:00:00;55.6;;;25.3;;
49900;SDS011;35789;48.414;12.768;2024-03-08T06:05:00;55.6;;;25.3;;
49900;SDS011;35789;48.414;12.768;2024-03-08T06:10:00;55.6;;;25.3;;
49900;SDS011;35789;48.414;12.768;2024-03-08T06:15:00;58.1;;;27.0;;
49900;SDS011;35789;48.414;12.768;2024-03-08T06:20:00;58.1;;;27.0;;
49900;SDS011;35789;48.414;12.768;2024-03-08T06:25:00;58.1;;;27.0;;
49900;SDS011;35789;48.414;12.768;2024-03-08T06:30:00;58.1;;;27.0;;
49900;SDS011;35789;48.414;12.768;2024-03-08T06:35:00;58.1;;;27.0;;
49900;SDS011;35789;48.414;12.768;2024-03-08T06:40:00;58.1;;;27.0;;
49900;SDS011;35789;48.414;12.768;2024-03-08T06:45:00;48.9;;;22.9;;
49900;SDS011;35789;48.414;12.768;2024-03-08T06:50:00;48.9;;;22.9;;
49900;SDS011;35789;48.414;12.768;2024-03-08T06:55:00;48.9;;;22.9;;
49900;SDS011;35789;48.414;12.768;2024-03-08T07:00:00;48.9;;;22.9;;
49900;SDS011;35789;48.414;12.768;2024-03-08T07:05:00;48.9;;;22.9;;
49900;SDS011;35789;48.414;12.768;2024-03-08T07:10:00;48.9;;;22.9;;
49900;SDS011;35789;48.414;12.768;2024-03-08T07:15:00;42.8;;;21.2;;
49900;SDS011;35789;48.414;12.768;2024-03-08T07:20:00;42.8;;;21.2;;
49900;SDS011;35789;48.414;12.768;2024-03-08T07:25:00;42.8;;;21.2;;
49900;SDS011;35789;48.414;12.768;2024-03-08T07:30:00;42.8;;;21.2;;
49900;SDS011;35789;48.414;12.768;2024-03-08T07:35:00;42.8;;;21.2;;
49900;SDS011;35789;48.414;12.768;2024-03-08T07:40:00;42.8;;;21.2;;
49900;SDS011;35789;48.414;12.768;2024-03-08T07:45:00;42.7;;;20.9;;
49900;SDS011;35789;48.414;12.768;2024-03-08T07:50:00;42.7;;;20.9;;
49900;SDS011;35789;48.414;12.768;2024-03-08T07:55:00;42.7;;;20.9;;
49900;SDS011;35789;48.414;12.768;2024-03-08T08:00:00;42.7;;;20.9;;
49900;SDS011;35789;48.414;12.768;2024-03-08T08:05:00;42.7;;;20.9;;
49900;SDS011;35789;48.414;12.768;2024-03-08T08:10:00;42.7;;;20.9;;
49900;SDS011;35789;48.414;12.768;2024-03-08T08:15:00;40.7;;;20.0;;
49900;SDS011;35789;48.414;12.768;2024-03-08T08:20:00;40.7;;;20.0;;
49900;SDS011;35789;48.414;12.768;2024-03-08T08:25:00;40.7;;;20.0;;
49900;SDS011;35789;48.414;12.768;2024-03-08T08:30:00;40.7;;;20.0;;
49900;SDS011;35789;48.414;12.768;2024-03-08T08:35:00;40.7;;;20.0;;
49900;SDS011;35789;48.414;12.768;2024-03-08T08:40:00;40.7;;;20.0;;
49900;SDS011;35789;48.414;12.768;2024-03-08T08:45:00;35.3;;;19.5;;
49900;SDS011;35789;48.414;12.768;2024-03-08T08:50:00;35.3;;;19.5;;
49900;SDS011;35789;48.414;12.768;2024-03-08T08:55:00;35.3;;;19.5;;
49900;SDS011;35789;48.414;12.768;2024-03-08T09:00:00;35.3;;;19.5;;
49900;SDS011;35789;48.414;12.768;2024-03-08T09:05:00;35.3;;;19.5;;
49900;SDS011;35789;48.414;12.768;2024-03-08T09:10:00;35.3;;;19.5;;
49900;SDS011;35789;48.414;12.768;2024-03-08T09:15:00;37.2;;;19.3;;
49900;SDS011;35789;48.414;12.768;2024-03-08T09:20:00;37.2;;;19.3;;
49900;SDS011;35789;48.414;12.768;2024-03-08T09:25:00;37.2;;;19.3;;
49900;SDS011;35789;48.414;12.768;2024-03-08T09:30:00;37.2;;;19.3;;
49900;SDS011;35789;48.414;12.768;2024-03-08T09:35:01;37.2;;;19.3;;
49900;SDS011;35789;48.414;12.768;2024-03-08T09:40:00;37.2;;;19.3;;
49900;SDS011;35789;48.414;12.768;2024-03-08T09:45:00;34.6;;;17.7;;
49900;SDS011;35789;48.414;12.768;2024-03-08T09:50:00;34.6;;;17.7;;
49900;SDS011;35789;48.414;12.768;2024-03-08T09:55:00;34.6;;;17.7;;
49900;SDS011;35789;48.414;12.768;2024-03-08T10:00:00;34.6;;;17.7;;
49900;SDS011;35789;48.414;12.768;2024-03-08T10:05:01;34.6;;;17.7;;
49900;SDS011;35789;48.414;12.768;2024-03-08T10:10:00;34.6;;;17.7;;
49900;SDS011;35789;48.414;12.768;2024-03-08T10:15:00;29.1;;;16.2;;
49900;SDS011;35789;48.414;12.768;2024-03-08T10:20:00;29.1;;;16.2;;
49900;SDS011;35789;48.414;12.768;2024-03-08T10:25:00;29.1;;;16.2;;
49900;SDS011;35789;48.414;12.768;2024-03-08T10:30:00;29.1;;;16.2;;
49900;SDS011;35789;48.414;12.768;2024-03-08T10:35:00;29.1;;;16.2;;
49900;SDS011;35789;48.414;12.768;2024-03-08T10:40:03;29.1;;;16.2;;
49900;SDS011;35789;48.414;12.768;2024-03-08T10:45:06;24.1;;;13.5;;
49900;SDS011;35789;48.414;12.768;2024-03-08T10:50:10;24.1;;;13.5;;
49900;SDS011;35789;48.414;12.768;2024-03-08T10:55:01;24.1;;;13.5;;
49900;SDS011;35789;48.414;12.768;2024-03-08T11:00:02;24.1;;;13.5;;
49900;SDS011;35789;48.414;12.768;2024-03-08T11:05:01;24.1;;;13.5;;
49900;SDS011;35789;48.414;12.768;2024-03-08T11:10:02;24.1;;;13.5;;
49900;SDS011;35789;48.414;12.768;2024-03-08T11:15:01;20.8;;;11.9;;
49900;SDS011;35789;48.414;12.768;2024-03-08T11:20:00;20.8;;;11.9;;
49900;SDS011;35789;48.414;12.768;2024-03-08T11:25:01;20.8;;;11.9;;
49900;SDS011;35789;48.414;12.768;2024-03-08T11:30:02;20.8;;;11.9;;
49900;SDS011;35789;48.414;12.768;2024-03-08T11:35:00;20.8;;;11.9;;
49900;SDS011;35789;48.414;12.768;2024-03-08T11:40:00;20.8;;;11.9;;
49900;SDS011;35789;48.414;12.768;2024-03-08T11:45:00;19.1;;;11.1;;
49900;SDS011;35789;48.414;12.768;2024-03-08T11:50:00;19.1;;;11.1;;
49900;SDS011;35789;48.414;12.768;2024-03-08T11:55:00;19.1;;;11.1;;
49900;SDS011;35789;48.414;12.768;2024-03-08T12:00:00;19.1;;;11.1;;
49900;SDS011;35789;48.414;12.768;2024-03-08T12:05:01;19.1;;;11.1;;
49900;SDS011;35789;48.414;12.768;2024-03-08T12:15:00;19.4;;;10.7;;
49900;SDS011;35789;48.414;12.768;2024-03-08T12:25:04;19.4;;;10.7;;
49900;SDS011;35789;48.414;12.768;2024-03-08T12:35:00;19.4;;;10.7;;
49900;SDS011;35789;48.414;12.768;2024-03-08T12:40:00;19.4;;;10.7;;
49900;SDS011;35789;48.414;12.768;2024-03-08T12:45:00;16.6;;;9.5;;
49900;SDS011;35789;48.414;12.768;2024-03-08T12:50:00;16.6;;;9.5;;
49900;SDS011;35789;48.414;12.768;2024-03-08T12:55:00;16.6;;;9.5;;
49900;SDS011;35789;48.414;12.768;2024-03-08T13:00:00;16.6;;;9.5;;
49900;SDS011;35789;48.414;12.768;2024-03-08T13:05:00;16.6;;;9.5;;
49900;SDS011;35789;48.414;12.768;2024-03-08T13:10:00;16.6;;;9.5;;
49900;SDS011;35789;48.414;12.768;2024-03-08T13:15:00;16.5;;;9.7;;
49900;SDS011;35789;48.414;12.768;2024-03-08T13:20:00;16.5;;;9.7;;
49900;SDS011;35789;48.414;12.768;2024-03-08T13:25:00;16.5;;;9.7;;
49900;SDS011;35789;48.414;12.768;2024-03-08T13:30:00;16.5;;;9.7;;
49900;SDS011;35789;48.414;12.768;2024-03-08T13:35:00;16.5;;;9.7;;
49900;SDS011;35789;48.414;12.768;2024-03-08T13:40:00;16.5;;;9.7;;
49900;SDS011;35789;48.414;12.768;2024-03-08T13:45:00;17.7;;;8.8;;
49900;SDS011;35789;48.414;12.768;2024-03-08T13:50:00;17.7;;;8.8;;
49900;SDS011;35789;48.414;12.768;2024-03-08T13:55:00;17.7;;;8.8;;
49900;SDS011;35789;48.414;12.768;2024-03-08T14:00:00;17.7;;;8.8;;
49900;SDS011;35789;48.414;12.768;2024-03-08T14:05:00;17.7;;;8.8;;
49900;SDS011;35789;48.414;12.768;2024-03-08T14:10:00;17.7;;;8.8;;
49900;SDS011;35789;48.414;12.768;2024-03-08T14:15:00;17.4;;;9.6;;
49900;SDS011;35789;48.414;12.768;2024-03-08T14:20:00;17.4;;;9.6;;
49900;SDS011;35789;48.414;12.768;2024-03-08T14:25:00;17.4;;;9.6;;
49900;SDS011;35789;48.414;12.768;2024-03-08T14:30:00;17.4;;;9.6;;
49900;SDS011;35789;48.414;12.768;2024-03-08T14:35:00;17.4;;;9.6;;
49900;SDS011;35789;48.414;12.768;2024-03-08T14:40:00;17.4;;;9.6;;
49900;SDS011;35789;48.414;12.768;2024-03-08T14:50:00;13.5;;;7.8;;
49900;SDS011;35789;48.414;12.768;2024-03-08T14:55:00;13.5;;;7.8;;
49900;SDS011;35789;48.414;12.768;2024-03-08T15:00:00;13.5;;;7.8;;
49900;SDS011;35789;48.414;12.768;2024-03-08T15:05:00;13.5;;;7.8;;
49900;SDS011;35789;48.414;12.768;2024-03-08T15:10:00;13.5;;;7.8;;
49900;SDS011;35789;48.414;12.768;2024-03-08T15:15:01;13.8;;;7.1;;
49900;SDS011;35789;48.414;12.768;2024-03-08T15:20:00;13.8;;;7.1;;
49900;SDS011;35789;48.414;12.768;2024-03-08T15:25:00;13.8;;;7.1;;
49900;SDS011;35789;48.414;12.768;2024-03-08T15:30:00;13.8;;;7.1;;
49900;SDS011;35789;48.414;12.768;2024-03-08T15:35:00;13.8;;;7.1;;
49900;SDS011;35789;48.414;12.768;2024-03-08T15:40:00;13.8;;;7.1;;
49900;SDS011;35789;48.414;12.768;2024-03-08T15:45:00;14.3;;;7.9;;
49900;SDS011;35789;48.414;12.768;2024-03-08T15:50:00;14.3;;;7.9;;
49900;SDS011;35789;48.414;12.768;2024-03-08T15:55:00;14.3;;;7.9;;
49900;SDS011;35789;48.414;12.768;2024-03-08T16:00:00;14.3;;;7.9;;
49900;SDS011;35789;48.414;12.768;2024-03-08T16:05:00;14.3;;;7.9;;
49900;SDS011;35789;48.414;12.768;2024-03-08T16:10:00;14.3;;;7.9;;
49900;SDS011;35789;48.414;12.768;2024-03-08T16:15:00;14.7;;;7.9;;
49900;SDS011;35789;48.414;12.768;2024-03-08T16:20:00;14.7;;;7.9;;
49900;SDS011;35789;48.414;12.768;2024-03-08T16:25:00;14.7;;;7.9;;
49900;SDS011;35789;48.414;12.768;2024-03-08T16:30:00;14.7;;;7.9;;
49900;SDS011;35789;48.414;12.768;2024-03-08T16:35:00;14.7;;;7.9;;
49900;SDS011;35789;48.414;12.768;2024-03-08T16:40:00;14.7;;;7.9;;
49900;SDS011;35789;48.414;12.768;2024-03-08T16:45:00;12.6;;;7.7;;
49900;SDS011;35789;48.414;12.768;2024-03-08T16:50:00;12.6;;;7.7;;
49900;SDS011;35789;48.414;12.768;2024-03-08T16:55:00;12.6;;;7.7;;
49900;SDS011;35789;48.414;12.768;2024-03-08T17:00:00;12.6;;;7.7;;
49900;SDS011;35789;48.414;12.768;2024-03-08T17:05:00;12.6;;;7.7;;
49900;SDS011;35789;48.414;12.768;2024-03-08T17:10:00;12.6;;;7.7;;
49900;SDS011;35789;48.414;12.768;2024-03-08T17:15:00;15.2;;;7.8;;
49900;SDS011;35789;48.414;12.768;2024-03-08T17:20:00;15.2;;;7.8;;
49900;SDS011;35789;48.414;12.768;2024-03-08T17:25:00;15.2;;;7.8;;
49900;SDS011;35789;48.414;12.768;2024-03-08T17:30:00;15.2;;;7.8;;
49900;SDS011;35789;48.414;12.768;2024-03-08T17:35:00;15.2;;;7.8;;
49900;SDS011;35789;48.414;12.768;2024-03-08T17:40:00;14.4;;;7.8;;
49900;SDS011;35789;48.414;12.768;2024-03-08T17:45:00;14.4;;;7.8;;
49900;SDS011;35789;48.414;12.768;2024-03-08T17:50:00;14.4;;;7.8;;
49900;SDS011;35789;48.414;12.768;2024-03-08T17:55:00;14.4;;;7.8;;
49900;SDS011;35789;48.414;12.768;2024-03-08T18:00:00;14.4;;;7.8;;
49900;SDS011;35789;48.414;12.768;2024-03-08T18:05:00;14.4;;;7.8;;
49900;SDS011;35789;48.414;12.768;2024-03-08T18:10:00;14.0;;;7.1;;
49900;SDS011;35789;48.414;12.768;2024-03-08T18:15:00;14.0;;;7.1;;
49900;SDS011;35789;48.414;12.768;2024-03-08T18:20:00;14.0;;;7.1;;
49900;SDS011;35789;48.414;12.768;2024-03-08T18:25:00;14.0;;;7.1;;
49900;SDS011;35789;48.414;12.768;2024-03-08T18:30:00;14.0;;;7.1;;
49900;SDS011;35789;48.414;12.768;2024-03-08T18:35:00;14.0;;;7.1;;
49900;SDS011;35789;48.414;12.768;2024-03-08T18:40:00;14.9;;;7.6;;
49900;SDS011;35789;48.414;12.768;2024-03-08T18:45:00;14.9;;;7.6;;
49900;SDS011;35789;48.414;12.768;2024-03-08T18:50:00;14.9;;;7.6;;
49900;SDS011;35789;48.414;12.768;2024-03-08T18:55:01;14.9;;;7.6;;
49900;SDS011;35789;48.414;12.768;2024-03-08T19:00:00;14.9;;;7.6;;
49900;SDS011;35789;48.414;12.768;2024-03-08T19:05:00;14.9;;;7.6;;
49900;SDS011;35789;48.414;12.768;2024-03-08T19:10:00;13.1;;;7.0;;
49900;SDS011;35789;48.414;12.768;2024-03-08T19:15:00;13.1;;;7.0;;
49900;SDS011;35789;48.414;12.768;2024-03-08T19:20:00;13.1;;;7.0;;
49900;SDS011;35789;48.414;12.768;2024-03-08T19:25:00;13.1;;;7.0;;
49900;SDS011;35789;48.414;12.768;2024-03-08T19:30:00;13.1;;;7.0;;
49900;SDS011;35789;48.414;12.768;2024-03-08T19:35:00;13.1;;;7.0;;
49900;SDS011;35789;48.414;12.768;2024-03-08T19:40:00;11.7;;;6.4;;
49900;SDS011;35789;48.414;12.768;2024-03-08T19:45:00;11.7;;;6.4;;
49900;SDS011;35789;48.414;12.768;2024-03-08T19:50:00;11.7;;;6.4;;
49900;SDS011;35789;48.414;12.768;2024-03-08T19:55:00;11.7;;;6.4;;
49900;SDS011;35789;48.414;12.768;2024-03-08T20:00:00;11.7;;;6.4;;
49900;SDS011;35789;48.414;12.768;2024-03-08T20:05:00;11.7;;;6.4;;
49900;SDS011;35789;48.414;12.768;2024-03-08T20:10:00;13.2;;;6.1;;
49900;SDS011;35789;48.414;12.768;2024-03-08T20:15:00;13.2;;;6.1;;
49900;SDS011;35789;48.414;12.768;2024-03-08T20:20:00;13.2;;;6.1;;
49900;SDS011;35789;48.414;12.768;2024-03-08T20:25:00;13.2;;;6.1;;
49900;SDS011;35789;48.414;12.768;2024-03-08T20:30:00;13.2;;;6.1;;
49900;SDS011;35789;48.414;12.768;2024-03-08T20:35:00;13.2;;;6.1;;
49900;SDS011;35789;48.414;12.768;2024-03-08T20:40:00;13.1;;;6.6;;
49900;SDS011;35789;48.414;12.768;2024-03-08T20:45:00;13.1;;;6.6;;
49900;SDS011;35789;48.414;12.768;2024-03-08T20:50:00;13.1;;;6.6;;
49900;SDS011;35789;48.414;12.768;2024-03-08T20:55:00;13.1;;;6.6;;
49900;SDS011;35789;48.414;12.768;2024-03-08T21:00:00;13.1;;;6.6;;
49900;SDS011;35789;48.414;12.768;2024-03-08T21:05:00;13.1;;;6.6;;
49900;SDS011;35789;48.414;12.768;2024-03-08T21:10:00;12.6;;;6.9;;
49900;SDS011;35789;48.414;12.768;2024-03-08T21:15:00;12.6;;;6.9;;
49900;SDS011;35789;48.414;12.768;2024-03-08T21:20:00;12.6;;;6.9;;
49900;SDS011;35789;48.414;12.768;2024-03-08T21:25:00;12.6;;;6.9;;
49900;SDS011;35789;48.414;12.768;2024-03-08T21:30:00;12.6;;;6.9;;
49900;SDS011;35789;48.414;12.768;2024-03-08T21:35:00;12.6;;;6.9;;
49900;SDS011;35789;48.414;12.768;2024-03-08T21:40:00;12.6;;;6.8;;
49900;SDS011;35789;48.414;12.768;2024-03-08T21:45:02;12.6;;;6.8;;
49900;SDS011;35789;48.414;12.768;2024-03-08T21:50:00;12.6;;;6.8;;
49900;SDS011;35789;48.414;12.768;2024-03-08T21:55:00;12.6;;;6.8;;
49900;SDS011;35789;48.414;12.768;2024-03-08T22:00:00;12.6;;;6.8;;
49900;SDS011;35789;48.414;12.768;2024-03-08T22:05:00;12.6;;;6.8;;
49900;SDS011;35789;48.414;12.768;2024-03-08T22:10:00;11.7;;;6.4;;
49900;SDS011;35789;48.414;12.768;2024-03-08T22:15:00;11.7;;;6.4;;
49900;SDS011;35789;48.414;12.768;2024-03-08T22:20:00;11.7;;;6.4;;
49900;SDS011;35789;48.414;12.768;2024-03-08T22:25:00;11.7;;;6.4;;
49900;SDS011;35789;48.414;12.768;2024-03-08T22:30:00;11.7;;;6.4;;
49900;SDS011;35789;48.414;12.768;2024-03-08T22:35:00;11.7;;;6.4;;
49900;SDS011;35789;48.414;12.768;2024-03-08T22:40:00;12.7;;;6.4;;
49900;SDS011;35789;48.414;12.768;2024-03-08T22:45:00;12.7;;;6.4;;
49900;SDS011;35789;48.414;12.768;2024-03-08T22:50:00;12.7;;;6.4;;
49900;SDS011;35789;48.414;12.768;2024-03-08T22:55:00;12.7;;;6.4;;
49900;SDS011;35789;48.414;12.768;2024-03-08T23:00:00;12.7;;;6.4;;
49900;SDS011;35789;48.414;12.768;2024-03-08T23:05:00;12.7;;;6.4;;
49900;SDS011;35789;48.414;12.768;2024-03-08T23:10:00;11.1;;;5.4;;
49900;SDS011;35789;48.414;12.768;2024-03-08T23:15:00;11.1;;;5.4;;
49900;SDS011;35789;48.414;12.768;2024-03-08T23:20:00;11.1;;;5.4;;
49900;SDS011;35789;48.414;12.768;2024-03-08T23:25:00;11.1;;;5.4;;
49900;SDS011;35789;48.414;12.768;2024-03-08T23:30:00;11.1;;;5.4;;
49900;SDS011;35789;48.414;12.768;2024-03-08T23:35:00;11.1;;;5.4;;
49900;SDS011;35789;48.414;12.768;2024-03-08T23:40:00;12.0;;;6.0;;
49900;SDS011;35789;48.414;12.768;2024-03-08T23:45:00;12.0;;;6.0;;
49900;SDS011;35789;48.414;12.768;2024-03-08T23:50:00;12.0;;;6.0;;
49900;SDS011;35789;48.414;12.768;2024-03-08T23:55:00;12.0;;;6.0;;
